»·PEaware :: AAL214 KLAS-KDEN

AAL214 :: KLAS-KDEN

FLIGHT INFORMATION

Flight Status: Arrived
Operator:
American Airlines
More flights by this operator :: More flights under this callsign
Pilot: Jim V. (20680)
Aircraft: BOEING 737-800
(B738)
More flights by this aircraft type
Origin: KLAS McCarran Intl
United States
Destination: KDEN Denver Intl
United States
More flights between these airports :: More routes between these airports
Route: +TRALR9 DVC WOLLF TELLR2
File this flight plan on PilotEdge
Remarks: PBN / A1B1C1D1S1S2 NAV / RNVD1E2A1 DAT / V DOF / 190211 REG / N929AA EET / KZDV0027 RMK / NRP
Altitude:
(Current/Filed)
34,000ft
Speed:
(Current/Filed)
433kts
Departed: 11-Feb-19 10:25 AM
Arrived: 11-Feb-19 11:51 AM
Distance/Time
Traveled:
545nm/1:26
Distance/Time
To Go:
Arrived

Flight Plot

Page will automatically refresh every two minutes.

Flight plan parsing failed; only flown route is shown


Map Options




Map Legend


Flown Route
Filed Route
Departure Airport
Arrival Airport
Navaid (VOR, NDB)
Fix

Horizontal Profiles

Position Reports

Time Latitude Longitude Heading Altitude Ground
Speed
11-Feb-19 10:08 36.080201 -115.136050 47 2189ft 0kts
11-Feb-19 10:09 36.080201 -115.136050 47 2189ft 0kts
11-Feb-19 10:10 36.080201 -115.136050 47 2189ft 0kts
11-Feb-19 10:11 36.080201 -115.136050 47 2189ft 0kts
11-Feb-19 10:12 36.080201 -115.136050 47 2189ft 0kts
11-Feb-19 10:13 36.080201 -115.136050 47 2189ft 0kts
11-Feb-19 10:14 36.080201 -115.136050 47 2189ft 0kts
11-Feb-19 10:15 36.080201 -115.136050 47 2189ft 0kts
11-Feb-19 10:16 36.080122 -115.136163 55 2189ft 1kts
11-Feb-19 10:17 36.080000 -115.136641 90 2189ft 1kts
11-Feb-19 10:18 36.079753 -115.136367 154 2189ft 0kts
11-Feb-19 10:19 36.079586 -115.136272 155 2189ft 10kts
11-Feb-19 10:20 36.078277 -115.132031 89 2189ft 15kts
11-Feb-19 10:21 36.078278 -115.125701 90 2189ft 21kts
11-Feb-19 10:22 36.077553 -115.121584 133 2189ft 0kts
11-Feb-19 10:23 36.076996 -115.121266 173 2189ft 14kts
11-Feb-19 10:24 36.076420 -115.149508 269 2514ft 170kts
11-Feb-19 10:25 36.075138 -115.214365 257 5067ft 226kts
11-Feb-19 10:26 36.026282 -115.277768 203 6999ft 281kts
11-Feb-19 10:27 35.949434 -115.295246 167 8840ft 296kts
11-Feb-19 10:28 35.877172 -115.238258 121 11794ft 346kts
11-Feb-19 10:29 35.861620 -115.122846 75 15283ft 356kts
11-Feb-19 10:30 35.887383 -115.003908 49 18503ft 365kts
11-Feb-19 10:31 35.943026 -114.894961 55 21495ft 390kts
11-Feb-19 10:32 35.992106 -114.771767 58 24185ft 413kts
11-Feb-19 10:33 36.042235 -114.641245 58 26655ft 431kts
11-Feb-19 10:34 36.094763 -114.504418 57 28833ft 450kts
11-Feb-19 10:35 36.149407 -114.361500 57 30850ft 469kts
11-Feb-19 10:36 36.198796 -114.211873 73 33041ft 486kts
11-Feb-19 10:37 36.217791 -114.044908 77 35104ft 489kts
11-Feb-19 10:38 36.237969 -113.873870 77 35158ft 502kts
11-Feb-19 10:39 36.257869 -113.702619 77 35161ft 502kts
11-Feb-19 10:40 36.277534 -113.531007 77 35163ft 502kts
11-Feb-19 10:41 36.296927 -113.359458 77 35165ft 502kts
11-Feb-19 10:42 36.322769 -113.191429 63 35160ft 492kts
11-Feb-19 10:43 36.381504 -113.039467 59 35155ft 489kts
11-Feb-19 10:44 36.438495 -112.885735 59 35121ft 489kts
11-Feb-19 10:45 36.495134 -112.732090 59 35094ft 489kts
11-Feb-19 10:46 36.551776 -112.577659 59 35092ft 489kts
11-Feb-19 10:47 36.608275 -112.422930 59 35091ft 490kts
11-Feb-19 10:48 36.664523 -112.268345 59 35077ft 491kts
11-Feb-19 10:49 36.720811 -112.112972 60 35079ft 490kts
11-Feb-19 10:50 36.776555 -111.958206 60 35086ft 491kts
11-Feb-19 10:51 36.832167 -111.802881 60 35092ft 490kts
11-Feb-19 10:52 36.887442 -111.647421 60 35093ft 490kts
11-Feb-19 10:53 36.942513 -111.491713 60 35095ft 489kts
11-Feb-19 10:54 36.997159 -111.336419 60 35090ft 489kts
11-Feb-19 10:56 37.051993 -111.180075 60 35086ft 490kts
11-Feb-19 10:57 37.106456 -111.023861 61 35080ft 489kts
11-Feb-19 10:58 37.160652 -110.867638 61 35055ft 489kts
11-Feb-19 10:59 37.214464 -110.711557 61 35049ft 488kts
11-Feb-19 11:00 37.268268 -110.554658 61 35045ft 488kts
11-Feb-19 11:01 37.321492 -110.398449 61 35044ft 488kts
11-Feb-19 11:02 37.374615 -110.241883 61 35034ft 487kts
11-Feb-19 11:03 37.427548 -110.085157 61 35023ft 486kts
11-Feb-19 11:04 37.480248 -109.928280 62 34989ft 485kts
11-Feb-19 11:05 37.532633 -109.771522 62 34983ft 485kts
11-Feb-19 11:06 37.584781 -109.614546 62 34985ft 485kts
11-Feb-19 11:07 37.636555 -109.457803 62 34987ft 485kts
11-Feb-19 11:08 37.687944 -109.301338 62 34978ft 485kts
11-Feb-19 11:09 37.739688 -109.143201 62 34973ft 486kts
11-Feb-19 11:10 37.791011 -108.985442 63 34988ft 486kts
11-Feb-19 11:11 37.854024 -108.836787 52 34991ft 478kts
11-Feb-19 11:12 37.924247 -108.693679 52 35001ft 478kts
11-Feb-19 11:13 37.993835 -108.550828 53 35002ft 477kts
11-Feb-19 11:13 38.051612 -108.431743 53 35003ft 475kts
11-Feb-19 11:15 38.129818 -108.269879 54 34998ft 476kts
11-Feb-19 11:16 38.198919 -108.126170 54 34956ft 476kts
11-Feb-19 11:16 38.256291 -108.006299 54 34906ft 476kts
11-Feb-19 11:17 38.325120 -107.861846 54 34939ft 476kts
11-Feb-19 11:18 38.393643 -107.717320 54 34983ft 477kts
11-Feb-19 11:20 38.473211 -107.547228 55 34994ft 478kts
11-Feb-19 11:20 38.528308 -107.424554 56 34995ft 478kts
11-Feb-19 11:21 38.593683 -107.278391 56 34987ft 479kts
11-Feb-19 11:22 38.659788 -107.130046 57 34989ft 480kts
11-Feb-19 11:23 38.725612 -106.981544 57 34960ft 481kts
11-Feb-19 11:24 38.791486 -106.832109 57 34849ft 480kts
11-Feb-19 11:25 38.856956 -106.682856 57 34793ft 478kts
11-Feb-19 11:26 38.923483 -106.537413 56 33840ft 469kts
11-Feb-19 11:27 38.990198 -106.393061 56 32867ft 468kts
11-Feb-19 11:28 39.055898 -106.249338 57 31868ft 466kts
11-Feb-19 11:29 39.119630 -106.108329 57 30152ft 451kts
11-Feb-19 11:30 39.182230 -105.966877 58 26449ft 452kts
11-Feb-19 11:31 39.242880 -105.828959 57 23728ft 430kts
11-Feb-19 11:32 39.300110 -105.698157 57 21179ft 409kts
11-Feb-19 11:33 39.354405 -105.573515 57 18831ft 375kts
11-Feb-19 11:34 39.394878 -105.458688 79 18670ft 344kts
11-Feb-19 11:35 39.401277 -105.335778 85 16984ft 335kts
11-Feb-19 11:36 39.406451 -105.217403 85 15336ft 326kts
11-Feb-19 11:37 39.411500 -105.101361 85 13688ft 318kts
11-Feb-19 11:38 39.416335 -104.992057 84 12990ft 278kts
11-Feb-19 11:39 39.422279 -104.896729 81 12480ft 262kts
11-Feb-19 11:40 39.430618 -104.804706 81 11400ft 254kts
11-Feb-19 11:41 39.446566 -104.717758 60 10999ft 247kts
11-Feb-19 11:42 39.500303 -104.670282 21 11010ft 239kts
11-Feb-19 11:43 39.565273 -104.663877 358 10672ft 234kts
11-Feb-19 11:44 39.628305 -104.663017 359 9449ft 210kts
11-Feb-19 11:45 39.682874 -104.662405 0 8351ft 190kts
11-Feb-19 11:46 39.736524 -104.661692 0 7275ft 174kts
11-Feb-19 11:47 39.778348 -104.661229 0 6458ft 145kts
11-Feb-19 11:48 39.818542 -104.660699 0 5676ft 144kts
11-Feb-19 11:49 39.845315 -104.660325 359 5442ft 48kts
11-Feb-19 11:50 39.849464 -104.661860 331 5442ft 2kts
11-Feb-19 11:51 39.851508 -104.662418 0 5442ft 12kts
11-Feb-19 11:52 39.855883 -104.662332 1 5442ft 13kts
11-Feb-19 11:53 39.856326 -104.665037 199 5442ft 12kts
11-Feb-19 11:54 39.855764 -104.669265 245 5442ft 13kts

Navigation Log

Ident Type
Flight plan parsing failed, navigation log unavailable